createdAt,value
2019-02-17T00:01:26.241Z,89.10
2019-02-17T00:03:54.356Z,89.50
2019-02-17T00:06:22.489Z,89.70
2019-02-17T00:08:50.509Z,89.40
2019-02-17T00:11:18.574Z,89.80
2019-02-17T00:13:46.648Z,90.00
2019-02-17T00:16:14.780Z,90.30
2019-02-17T00:18:42.863Z,90.60
2019-02-17T00:21:11.005Z,91.00
2019-02-17T00:23:39.103Z,91.40
2019-02-17T00:26:07.376Z,91.40
2019-02-17T00:28:35.654Z,91.80
2019-02-17T00:31:03.770Z,91.80
2019-02-17T00:33:31.918Z,92.20
2019-02-17T00:36:00.077Z,92.20
2019-02-17T00:38:28.252Z,92.10
2019-02-17T00:40:56.463Z,92.60
2019-02-17T00:43:24.555Z,92.90
2019-02-17T00:45:52.606Z,93.00
2019-02-17T00:48:20.730Z,93.10
2019-02-17T00:50:48.848Z,93.10
2019-02-17T00:53:17.547Z,93.30
2019-02-17T00:55:45.693Z,93.20
2019-02-17T00:58:13.756Z,93.70
2019-02-17T01:00:41.806Z,94.00
2019-02-17T01:03:09.968Z,94.30
2019-02-17T01:05:39.622Z,94.50
2019-02-17T01:08:08.086Z,94.60
2019-02-17T01:10:36.183Z,94.90
2019-02-17T01:13:04.322Z,95.10
2019-02-17T01:15:32.378Z,95.50
2019-02-17T01:18:00.457Z,95.70
2019-02-17T01:20:30.790Z,95.80
2019-02-17T01:22:58.972Z,95.80
2019-02-17T01:25:27.123Z,96.20
2019-02-17T01:27:55.181Z,96.40
2019-02-17T01:30:23.256Z,96.50
2019-02-17T01:32:51.472Z,96.70
2019-02-17T01:35:19.550Z,96.80
2019-02-17T01:37:47.671Z,96.70
2019-02-17T01:40:15.862Z,96.60
2019-02-17T01:42:43.968Z,96.60
2019-02-17T01:45:12.267Z,96.50
2019-02-17T01:47:40.375Z,96.30
2019-02-17T01:50:08.593Z,96.30
2019-02-17T01:52:37.680Z,96.20
2019-02-17T01:55:05.800Z,96.40
2019-02-17T01:57:33.855Z,96.30
2019-02-17T02:00:02.252Z,96.30
2019-02-17T02:02:30.368Z,96.40
2019-02-17T02:04:59.414Z,96.50
2019-02-17T02:07:27.476Z,96.60
2019-02-17T02:09:55.512Z,96.60
2019-02-17T02:12:23.745Z,96.60
2019-02-17T02:14:51.909Z,96.40
2019-02-17T02:17:20.065Z,96.20
2019-02-17T02:19:48.363Z,95.70
2019-02-17T02:22:16.468Z,95.30
2019-02-17T02:24:44.789Z,94.90
2019-02-17T02:27:12.989Z,94.70
2019-02-17T02:29:41.586Z,94.60
2019-02-17T02:32:09.732Z,94.40
2019-02-17T02:34:37.861Z,94.20
2019-02-17T02:37:06.100Z,94.20
2019-02-17T02:39:34.953Z,94.50
2019-02-17T02:42:03.089Z,94.60
2019-02-17T02:44:31.228Z,94.30
2019-02-17T02:46:59.964Z,94.10
2019-02-17T02:49:28.137Z,93.90
2019-02-17T02:51:56.451Z,93.80
2019-02-17T02:54:24.500Z,93.70
2019-02-17T02:56:52.619Z,93.50
2019-02-17T02:59:20.638Z,93.70
2019-02-17T03:01:48.758Z,93.70
2019-02-17T03:04:16.876Z,93.70
2019-02-17T03:06:56.116Z,93.80
2019-02-17T03:09:25.580Z,93.60
2019-02-17T03:11:54.062Z,93.90
2019-02-17T03:14:22.219Z,93.70
2019-02-17T03:16:50.391Z,93.90
2019-02-17T03:19:18.586Z,94.10
2019-02-17T03:21:46.798Z,94.20
2019-02-17T03:24:14.937Z,94.00
2019-02-17T03:26:43.051Z,94.20
2019-02-17T03:29:11.186Z,94.40
2019-02-17T03:31:39.500Z,94.40
2019-02-17T03:34:07.715Z,94.10
2019-02-17T03:36:35.865Z,94.10
2019-02-17T03:39:05.465Z,94.10
2019-02-17T03:41:34.003Z,94.50
2019-02-17T03:44:02.271Z,94.20
2019-02-17T03:46:30.348Z,94.40
2019-02-17T03:48:58.459Z,94.50
2019-02-17T03:51:26.579Z,94.60
2019-02-17T03:53:54.937Z,94.60
2019-02-17T03:56:23.149Z,94.70
2019-02-17T03:58:51.216Z,94.70
2019-02-17T04:01:19.563Z,94.70
2019-02-17T04:03:47.942Z,94.90
2019-02-17T04:06:16.066Z,94.90
2019-02-17T04:08:44.155Z,95.10
2019-02-17T04:11:12.179Z,95.10
2019-02-17T04:13:40.367Z,95.20
2019-02-17T04:16:08.578Z,95.20
2019-02-17T04:18:36.586Z,95.30
2019-02-17T04:21:04.677Z,95.30
2019-02-17T04:23:32.749Z,95.60
2019-02-17T04:26:00.882Z,95.20
2019-02-17T04:28:29.013Z,95.30
2019-02-17T04:30:57.167Z,95.10
2019-02-17T04:33:25.323Z,95.00
2019-02-17T04:35:53.394Z,94.90
2019-02-17T04:38:21.561Z,95.20
2019-02-17T04:40:50.746Z,94.80
2019-02-17T04:43:18.878Z,94.60
2019-02-17T04:45:46.926Z,94.40
2019-02-17T04:48:16.121Z,94.40
2019-02-17T04:50:44.163Z,94.40
2019-02-17T04:53:12.302Z,94.40
2019-02-17T04:55:40.369Z,94.40
2019-02-17T04:58:08.561Z,94.40
2019-02-17T05:00:40.302Z,94.40
2019-02-17T05:03:06.765Z,94.60
2019-02-17T05:05:34.861Z,94.50
2019-02-17T05:08:03.016Z,94.20
2019-02-17T05:10:31.073Z,94.20
2019-02-17T05:12:59.126Z,94.10
2019-02-17T05:15:27.178Z,94.00
2019-02-17T05:17:55.323Z,94.00
2019-02-17T05:20:23.463Z,94.00
2019-02-17T05:22:51.683Z,93.80
2019-02-17T05:25:19.848Z,93.90
2019-02-17T05:27:48.048Z,93.90
2019-02-17T05:30:16.192Z,93.90
2019-02-17T05:32:44.342Z,93.90
2019-02-17T05:35:12.389Z,93.90
2019-02-17T05:37:40.551Z,93.90
2019-02-17T05:40:08.864Z,94.10
2019-02-17T05:42:37.033Z,94.30
2019-02-17T05:45:05.230Z,94.30
2019-02-17T05:47:33.342Z,94.20
2019-02-17T05:50:01.440Z,94.10
2019-02-17T05:52:29.532Z,94.30
2019-02-17T05:54:57.661Z,94.30
2019-02-17T05:57:26.782Z,94.40
2019-02-17T05:59:54.839Z,94.60
2019-02-17T06:02:23.038Z,94.60
2019-02-17T06:04:51.113Z,94.90
2019-02-17T06:07:19.349Z,95.00
2019-02-17T06:09:47.639Z,95.00
2019-02-17T06:12:15.721Z,94.90
2019-02-17T06:14:43.904Z,95.00
2019-02-17T06:17:11.957Z,95.10
2019-02-17T06:19:40.137Z,95.20
2019-02-17T06:22:08.379Z,95.30
2019-02-17T06:24:36.509Z,95.30
2019-02-17T06:27:04.712Z,95.30
2019-02-17T06:29:32.851Z,95.30
2019-02-17T06:32:01.014Z,95.30
2019-02-17T06:34:29.129Z,95.40
2019-02-17T06:36:57.235Z,95.50
2019-02-17T06:39:25.382Z,95.80
2019-02-17T06:41:53.499Z,96.00
2019-02-17T06:44:21.637Z,96.20
2019-02-17T06:46:54.006Z,96.10
2019-02-17T06:49:22.056Z,95.60
2019-02-17T06:51:50.396Z,95.70
2019-02-17T06:54:18.633Z,95.70
2019-02-17T06:56:53.398Z,95.50
2019-02-17T06:59:21.643Z,95.00
2019-02-17T07:01:49.647Z,94.80
2019-02-17T07:04:19.768Z,94.70
2019-02-17T07:06:58.411Z,94.60
2019-02-17T07:09:26.606Z,94.70
2019-02-17T07:11:56.823Z,94.50
2019-02-17T07:14:25.006Z,94.50
2019-02-17T07:16:53.234Z,94.40
2019-02-17T07:19:21.387Z,94.50
2019-02-17T07:21:49.614Z,94.40
2019-02-17T07:24:17.814Z,94.50
2019-02-17T07:26:46.299Z,94.60
2019-02-17T07:29:16.689Z,94.50
2019-02-17T07:31:44.341Z,94.20
2019-02-17T07:34:12.518Z,94.20
2019-02-17T07:36:40.545Z,94.20
2019-02-17T07:39:08.654Z,94.00
2019-02-17T07:41:36.671Z,94.00
2019-02-17T07:44:04.746Z,94.00
2019-02-17T07:46:32.940Z,93.80
2019-02-17T07:49:01.265Z,93.90
2019-02-17T07:51:32.922Z,93.80
2019-02-17T07:54:01.168Z,93.80
2019-02-17T07:56:29.515Z,93.80
2019-02-17T07:58:57.549Z,93.60
2019-02-17T08:01:25.774Z,93.70
2019-02-17T08:03:53.833Z,93.90
2019-02-17T08:06:21.869Z,93.90
2019-02-17T08:08:49.917Z,93.90
2019-02-17T08:11:18.003Z,94.00
2019-02-17T08:13:46.122Z,93.90
2019-02-17T08:16:14.152Z,94.10
2019-02-17T08:18:42.276Z,93.90
2019-02-17T08:21:10.352Z,93.90
2019-02-17T08:23:38.431Z,93.80
2019-02-17T08:26:06.617Z,93.80
2019-02-17T08:28:34.707Z,93.80
2019-02-17T08:31:02.766Z,93.80
2019-02-17T08:33:30.969Z,94.90
2019-02-17T08:35:59.057Z,94.60
2019-02-17T08:38:27.263Z,93.70
2019-02-17T08:40:55.318Z,93.30
2019-02-17T08:43:23.462Z,93.60
2019-02-17T08:45:51.637Z,93.90
2019-02-17T08:48:19.721Z,93.30
2019-02-17T08:50:48.014Z,93.10
2019-02-17T08:53:16.315Z,92.60
2019-02-17T08:55:44.340Z,92.40
2019-02-17T08:58:12.448Z,92.20
2019-02-17T09:00:40.741Z,92.10
2019-02-17T09:03:08.932Z,92.00
2019-02-17T09:05:43.885Z,92.00
2019-02-17T09:08:07.099Z,92.00
2019-02-17T09:10:35.329Z,91.80
2019-02-17T09:13:03.422Z,91.80
2019-02-17T09:15:31.478Z,91.70
2019-02-17T09:17:59.509Z,91.70
2019-02-17T09:20:27.601Z,91.80
2019-02-17T09:22:55.791Z,91.30
2019-02-17T09:25:23.921Z,91.30
2019-02-17T09:27:52.172Z,90.40
2019-02-17T09:30:20.529Z,89.90
2019-02-17T09:32:49.777Z,89.20
2019-02-17T09:35:17.961Z,89.00
2019-02-17T09:37:46.055Z,87.70
2019-02-17T09:40:14.112Z,87.50
2019-02-17T09:42:42.218Z,86.80
2019-02-17T09:45:12.473Z,87.30
2019-02-17T09:47:40.888Z,86.30
2019-02-17T09:50:10.920Z,87.20
2019-02-17T09:52:39.156Z,88.80
2019-02-17T09:55:07.645Z,86.70
2019-02-17T09:57:35.948Z,84.30
2019-02-17T10:00:04.531Z,85.60
2019-02-17T10:02:33.079Z,83.80
2019-02-17T10:05:04.247Z,79.90
2019-02-17T10:07:32.460Z,76.70
2019-02-17T10:10:00.683Z,78.30
2019-02-17T10:12:28.846Z,79.00
2019-02-17T10:14:56.971Z,81.30
2019-02-17T10:17:31.970Z,78.90
2019-02-17T10:20:00.223Z,77.80
2019-02-17T10:22:28.386Z,76.80
2019-02-17T10:24:56.582Z,77.30
2019-02-17T10:27:24.701Z,74.70
2019-02-17T10:29:52.891Z,75.50
2019-02-17T10:32:20.942Z,76.40
2019-02-17T10:34:49.289Z,76.70
2019-02-17T10:37:17.436Z,76.20
2019-02-17T10:39:45.721Z,76.30
2019-02-17T10:42:13.822Z,76.70
2019-02-17T10:44:41.865Z,76.40
2019-02-17T10:47:09.986Z,76.90
2019-02-17T10:49:38.063Z,76.80
2019-02-17T10:52:06.113Z,76.70
2019-02-17T10:54:34.259Z,76.80
2019-02-17T10:57:02.352Z,76.80
2019-02-17T10:59:30.431Z,76.60
2019-02-17T11:01:58.534Z,76.80
2019-02-17T11:04:26.609Z,76.60
2019-02-17T11:06:54.713Z,76.20
2019-02-17T11:09:24.324Z,75.70
2019-02-17T11:11:52.858Z,75.70
2019-02-17T11:14:21.133Z,76.50
2019-02-17T11:16:50.548Z,76.20
2019-02-17T11:19:18.687Z,75.50
2019-02-17T11:21:46.866Z,75.30
2019-02-17T11:24:15.029Z,75.50
2019-02-17T11:26:43.283Z,75.50
2019-02-17T11:29:11.488Z,75.50
2019-02-17T11:31:41.117Z,75.30
2019-02-17T11:34:10.943Z,74.50
2019-02-17T11:36:39.206Z,74.70
2019-02-17T11:39:15.509Z,73.90
2019-02-17T11:41:43.847Z,74.40
2019-02-17T11:44:12.219Z,74.10
2019-02-17T11:46:40.449Z,73.90
2019-02-17T11:49:08.746Z,73.40
2019-02-17T11:51:37.507Z,73.40
2019-02-17T11:54:06.002Z,73.30
2019-02-17T11:56:34.944Z,73.20
2019-02-17T11:59:03.594Z,72.80
2019-02-17T12:01:31.982Z,72.70
2019-02-17T12:04:00.211Z,72.80
2019-02-17T12:06:28.245Z,72.90
2019-02-17T12:08:58.606Z,72.80
2019-02-17T12:11:29.586Z,72.50
2019-02-17T12:13:57.910Z,72.20
2019-02-17T12:16:36.547Z,72.30
2019-02-17T12:18:56.366Z,71.60
2019-02-17T12:21:39.332Z,71.90
2019-02-17T12:24:15.377Z,71.50
2019-02-17T12:27:21.334Z,71.40
2019-02-17T12:29:56.286Z,71.10
2019-02-17T12:32:28.858Z,70.90
2019-02-17T12:34:56.991Z,70.80
2019-02-17T12:37:28.422Z,70.60
2019-02-17T12:39:56.568Z,71.00
2019-02-17T12:42:24.717Z,70.60
2019-02-17T12:44:52.929Z,71.00
2019-02-17T12:47:21.071Z,70.90
2019-02-17T12:49:49.890Z,70.70
2019-02-17T12:52:18.195Z,70.70
2019-02-17T12:54:46.618Z,70.30
2019-02-17T12:57:14.916Z,70.30
2019-02-17T12:59:43.451Z,69.80
2019-02-17T13:02:11.489Z,69.80
2019-02-17T13:04:39.661Z,69.20
2019-02-17T13:07:07.770Z,68.80
2019-02-17T13:09:35.884Z,68.80
2019-02-17T13:12:04.099Z,68.80
2019-02-17T13:14:32.318Z,69.20
2019-02-17T13:17:00.441Z,69.20
2019-02-17T13:19:28.550Z,68.80
2019-02-17T13:21:56.756Z,68.50
2019-02-17T13:24:27.430Z,68.40
2019-02-17T13:26:55.842Z,68.10
2019-02-17T13:29:24.289Z,67.70
2019-02-17T13:31:52.422Z,67.90
2019-02-17T13:34:20.507Z,67.70
2019-02-17T13:36:48.650Z,67.50
2019-02-17T13:39:17.071Z,67.60
2019-02-17T13:41:45.175Z,67.50
2019-02-17T13:44:13.246Z,67.40
2019-02-17T13:46:41.331Z,66.80
2019-02-17T13:49:09.535Z,66.90
2019-02-17T13:51:37.872Z,66.70
2019-02-17T13:54:06.022Z,66.90
2019-02-17T13:56:34.111Z,66.90
2019-02-17T13:59:02.261Z,66.80
2019-02-17T14:01:30.338Z,65.90
2019-02-17T14:03:58.460Z,65.60
2019-02-17T14:06:26.788Z,65.60
2019-02-17T14:08:54.858Z,65.00
2019-02-17T14:11:23.172Z,65.00
2019-02-17T14:13:51.433Z,64.70
2019-02-17T14:16:19.451Z,64.50
2019-02-17T14:18:47.816Z,64.40
2019-02-17T14:21:15.956Z,64.10
2019-02-17T14:23:44.160Z,64.10
2019-02-17T14:26:12.465Z,64.10
2019-02-17T14:28:40.688Z,63.90
2019-02-17T14:31:11.216Z,63.90
2019-02-17T14:33:39.296Z,64.00
2019-02-17T14:36:07.504Z,64.40
2019-02-17T14:38:35.590Z,64.10
2019-02-17T14:41:03.781Z,64.00
2019-02-17T14:43:31.863Z,64.20
2019-02-17T14:46:00.110Z,64.20
2019-02-17T14:48:28.482Z,64.20
2019-02-17T14:50:56.721Z,64.00
2019-02-17T14:53:25.072Z,63.70
2019-02-17T14:55:53.183Z,63.60
2019-02-17T14:58:21.311Z,63.90
2019-02-17T15:00:49.616Z,63.60
2019-02-17T15:03:17.703Z,63.80
2019-02-17T15:05:45.936Z,64.10
2019-02-17T15:08:14.178Z,64.40
2019-02-17T15:10:42.394Z,64.80
2019-02-17T15:13:10.666Z,64.90
2019-02-17T15:15:38.879Z,64.90
2019-02-17T15:18:07.357Z,64.90
2019-02-17T15:20:35.489Z,64.90
2019-02-17T15:23:03.916Z,65.20
2019-02-17T15:25:32.151Z,65.40
2019-02-17T15:28:00.585Z,65.60
2019-02-17T15:30:28.872Z,65.80
2019-02-17T15:33:03.696Z,66.00
2019-02-17T15:35:26.936Z,66.30
2019-02-17T15:37:55.001Z,66.60
2019-02-17T15:40:23.609Z,66.80
2019-02-17T15:42:52.779Z,67.00
2019-02-17T15:45:21.030Z,67.10
2019-02-17T15:47:49.392Z,67.30
2019-02-17T15:50:17.817Z,67.60
2019-02-17T15:52:45.958Z,67.80
2019-02-17T15:55:14.112Z,67.90
2019-02-17T15:57:42.197Z,68.00
2019-02-17T16:00:12.586Z,68.50
2019-02-17T16:02:40.792Z,68.50
2019-02-17T16:05:09.887Z,68.70
2019-02-17T16:07:38.358Z,68.80
2019-02-17T16:10:07.923Z,69.00
2019-02-17T16:12:36.085Z,69.30
2019-02-17T16:15:06.472Z,70.50
2019-02-17T16:17:34.855Z,71.10
2019-02-17T16:20:03.395Z,71.20
2019-02-17T16:22:31.444Z,70.20
2019-02-17T16:24:59.583Z,70.30
2019-02-17T16:27:28.000Z,71.30
2019-02-17T16:29:56.235Z,70.50
2019-02-17T16:32:24.452Z,69.80
2019-02-17T16:34:52.750Z,70.60
2019-02-17T16:37:20.862Z,68.90
2019-02-17T16:39:49.030Z,69.60
2019-02-17T16:42:18.191Z,69.10
2019-02-17T16:44:46.284Z,69.10
2019-02-17T16:47:14.355Z,69.10
2019-02-17T16:49:42.472Z,68.90
2019-02-17T16:52:10.580Z,69.40
2019-02-17T16:54:38.717Z,70.20
2019-02-17T16:57:06.863Z,69.90
2019-02-17T16:59:34.997Z,69.60
2019-02-17T17:02:03.448Z,69.90
2019-02-17T17:04:31.559Z,70.10
2019-02-17T17:07:01.064Z,69.50
2019-02-17T17:09:29.331Z,69.70
2019-02-17T17:11:57.431Z,69.40
2019-02-17T17:14:25.596Z,69.20
2019-02-17T17:16:54.070Z,68.10
2019-02-17T17:19:22.219Z,68.50
2019-02-17T17:21:50.369Z,68.60
2019-02-17T17:24:18.592Z,68.40
2019-02-17T17:26:47.002Z,69.50
2019-02-17T17:29:15.196Z,69.10
2019-02-17T17:31:43.259Z,68.90
2019-02-17T17:34:13.209Z,69.20
2019-02-17T17:36:41.487Z,69.50
2019-02-17T17:39:09.783Z,70.10
2019-02-17T17:41:38.260Z,70.10
2019-02-17T17:44:06.404Z,70.30
2019-02-17T17:46:34.618Z,70.60
2019-02-17T17:49:02.907Z,71.60
2019-02-17T17:51:31.114Z,71.30
2019-02-17T17:53:59.374Z,71.40
2019-02-17T17:56:27.600Z,71.80
2019-02-17T17:58:55.877Z,72.00
2019-02-17T18:01:24.082Z,72.10
2019-02-17T18:03:52.298Z,72.30
2019-02-17T18:06:21.221Z,72.70
2019-02-17T18:08:49.303Z,72.80
2019-02-17T18:11:17.489Z,72.90
2019-02-17T18:13:47.187Z,73.20
2019-02-17T18:16:15.895Z,73.70
2019-02-17T18:18:44.697Z,74.00
2019-02-17T18:21:12.961Z,74.30
2019-02-17T18:23:42.075Z,74.40
2019-02-17T18:26:12.549Z,74.70
2019-02-17T18:28:40.893Z,74.90
2019-02-17T18:31:08.984Z,75.20
2019-02-17T18:33:37.083Z,75.60
2019-02-17T18:36:05.143Z,75.80
2019-02-17T18:38:33.276Z,75.90
2019-02-17T18:41:01.739Z,76.30
2019-02-17T18:43:30.607Z,76.90
2019-02-17T18:45:58.875Z,77.10
2019-02-17T18:48:29.429Z,77.40
2019-02-17T18:50:59.474Z,77.80
2019-02-17T18:53:33.272Z,78.30
2019-02-17T18:56:01.398Z,78.60
2019-02-17T18:58:29.553Z,78.80
2019-02-17T19:00:57.689Z,79.10
2019-02-17T19:03:25.751Z,79.50
2019-02-17T19:05:53.869Z,80.10
2019-02-17T19:08:23.248Z,80.40
2019-02-17T19:10:51.652Z,81.10
2019-02-17T19:13:19.841Z,81.10
2019-02-17T19:15:48.025Z,81.30
2019-02-17T19:18:16.346Z,81.40
2019-02-17T19:20:44.738Z,81.20
2019-02-17T19:23:12.967Z,81.50
2019-02-17T19:25:41.104Z,81.60
2019-02-17T19:28:09.303Z,81.80
2019-02-17T19:30:37.340Z,81.60
2019-02-17T19:33:05.433Z,81.90
2019-02-17T19:35:41.510Z,82.20
2019-02-17T19:38:03.514Z,82.60
2019-02-17T19:40:31.711Z,82.70
2019-02-17T19:42:59.865Z,83.00
2019-02-17T19:45:27.954Z,83.50
2019-02-17T19:47:56.203Z,83.60
2019-02-17T19:50:24.216Z,83.40
2019-02-17T19:52:52.384Z,83.40
2019-02-17T19:55:20.590Z,83.60
2019-02-17T19:57:48.690Z,83.80
2019-02-17T20:00:16.808Z,84.10
2019-02-17T20:03:04.459Z,84.50
2019-02-17T20:05:35.602Z,84.90
2019-02-17T20:08:03.985Z,85.10
2019-02-17T20:10:32.342Z,85.20
2019-02-17T20:13:00.716Z,85.40
2019-02-17T20:15:32.937Z,86.40
2019-02-17T20:18:02.660Z,86.40
2019-02-17T20:20:33.834Z,86.40
2019-02-17T20:23:05.538Z,86.70
2019-02-17T20:25:33.844Z,86.90
2019-02-17T20:28:02.814Z,87.00
2019-02-17T20:30:33.128Z,87.40
2019-02-17T20:33:04.308Z,87.60
2019-02-17T20:35:35.468Z,87.70
2019-02-17T20:38:03.691Z,88.10
2019-02-17T20:40:31.964Z,88.10
2019-02-17T20:43:00.256Z,88.50
2019-02-17T20:45:30.162Z,88.60
2019-02-17T20:47:59.246Z,88.90
2019-02-17T20:50:30.443Z,89.00
2019-02-17T20:53:00.347Z,89.20
2019-02-17T20:55:28.664Z,89.50
2019-02-17T20:57:56.809Z,89.90
2019-02-17T21:00:26.750Z,90.00
2019-02-17T21:02:54.897Z,90.10
2019-02-17T21:05:23.144Z,90.20
2019-02-17T21:07:51.187Z,90.30
2019-02-17T21:10:19.329Z,90.30
2019-02-17T21:12:47.757Z,90.40
2019-02-17T21:15:17.657Z,90.60
2019-02-17T21:17:45.784Z,90.60
2019-02-17T21:20:15.148Z,90.70
2019-02-17T21:22:43.257Z,90.80
2019-02-17T21:25:11.893Z,90.80
2019-02-17T21:27:40.017Z,90.80
2019-02-17T21:30:08.942Z,90.90
2019-02-17T21:32:37.125Z,91.00
2019-02-17T21:35:09.839Z,91.00
2019-02-17T21:37:38.065Z,91.10
2019-02-17T21:40:08.523Z,91.20
2019-02-17T21:42:36.795Z,91.30
2019-02-17T21:45:06.288Z,91.40
2019-02-17T21:47:35.416Z,91.40
2019-02-17T21:50:04.387Z,91.50
2019-02-17T21:52:33.474Z,91.50
2019-02-17T21:55:01.742Z,91.60
2019-02-17T21:57:31.606Z,91.80
2019-02-17T21:59:59.800Z,91.90
2019-02-17T22:02:30.930Z,92.00
2019-02-17T22:04:59.782Z,92.10
2019-02-17T22:07:28.395Z,92.10
2019-02-17T22:09:56.565Z,91.80
2019-02-17T22:12:24.724Z,91.70
2019-02-17T22:14:53.123Z,92.10
2019-02-17T22:17:21.195Z,92.00
2019-02-17T22:19:49.272Z,92.00
2019-02-17T22:22:17.679Z,92.20
2019-02-17T22:24:46.798Z,92.40
2019-02-17T22:27:14.929Z,92.40
2019-02-17T22:29:43.125Z,92.40
2019-02-17T22:32:11.287Z,92.50
2019-02-17T22:34:39.404Z,92.50
2019-02-17T22:37:07.555Z,92.50
2019-02-17T22:39:35.625Z,92.70
2019-02-17T22:42:03.818Z,92.70
2019-02-17T22:44:33.040Z,92.80
2019-02-17T22:47:01.212Z,92.90
2019-02-17T22:49:29.300Z,93.00
2019-02-17T22:51:57.790Z,93.10
2019-02-17T22:54:25.957Z,93.30
2019-02-17T22:56:54.595Z,93.30
2019-02-17T22:59:22.763Z,93.40
2019-02-17T23:01:51.119Z,93.30
2019-02-17T23:04:20.490Z,93.50
2019-02-17T23:06:54.235Z,93.50
2019-02-17T23:09:18.941Z,93.50
2019-02-17T23:11:47.004Z,93.60
2019-02-17T23:14:15.215Z,93.70
2019-02-17T23:16:43.235Z,93.80
2019-02-17T23:19:11.337Z,93.90
2019-02-17T23:21:41.904Z,93.90
2019-02-17T23:24:10.313Z,94.00
2019-02-17T23:26:38.412Z,94.00
2019-02-17T23:29:06.510Z,94.00
2019-02-17T23:31:34.711Z,93.80
2019-02-17T23:34:02.782Z,93.80
2019-02-17T23:36:30.871Z,93.90
2019-02-17T23:38:58.979Z,93.90
2019-02-17T23:41:27.124Z,94.00
2019-02-17T23:43:58.649Z,94.00
2019-02-17T23:46:27.274Z,94.10
2019-02-17T23:48:55.572Z,94.10
2019-02-17T23:51:23.701Z,94.20
2019-02-17T23:53:51.804Z,94.20
2019-02-17T23:56:19.948Z,94.30
2019-02-17T23:58:48.061Z,94.50
